sensor_id;sensor_type;location;lat;lon;timestamp;pressure;altitude;pressure_sealevel;temperature;humidity
3096;BME280;1558;42.700;23.360;2022-10-16T00:01:51;95970.94;;;9.24;100.00
3096;BME280;1558;42.700;23.360;2022-10-16T00:04:19;95965.34;;;9.21;100.00
3096;BME280;1558;42.700;23.360;2022-10-16T00:06:47;95973.09;;;9.22;100.00
3096;BME280;1558;42.700;23.360;2022-10-16T00:09:15;95967.56;;;9.19;100.00
3096;BME280;1558;42.700;23.360;2022-10-16T00:11:45;95965.94;;;9.18;100.00
3096;BME280;1558;42.700;23.360;2022-10-16T00:14:14;95961.97;;;9.15;100.00
3096;BME280;1558;42.700;23.360;2022-10-16T00:16:42;95973.38;;;9.12;100.00
3096;BME280;1558;42.700;23.360;2022-10-16T00:19:13;95981.00;;;9.19;100.00
3096;BME280;1558;42.700;23.360;2022-10-16T00:21:41;95981.72;;;9.11;100.00
3096;BME280;1558;42.700;23.360;2022-10-16T00:24:10;95980.88;;;9.02;100.00
3096;BME280;1558;42.700;23.360;2022-10-16T00:26:42;95957.84;;;8.73;100.00
3096;BME280;1558;42.700;23.360;2022-10-16T00:29:17;95980.22;;;8.96;100.00
3096;BME280;1558;42.700;23.360;2022-10-16T00:31:45;95989.69;;;8.94;100.00
3096;BME280;1558;42.700;23.360;2022-10-16T00:34:16;95993.69;;;8.82;100.00
3096;BME280;1558;42.700;23.360;2022-10-16T00:36:49;95992.22;;;8.76;100.00
3096;BME280;1558;42.700;23.360;2022-10-16T00:39:22;95993.19;;;8.80;100.00
3096;BME280;1558;42.700;23.360;2022-10-16T00:41:51;95993.47;;;8.93;100.00
3096;BME280;1558;42.700;23.360;2022-10-16T00:44:46;95992.38;;;8.80;100.00
3096;BME280;1558;42.700;23.360;2022-10-16T00:47:19;95947.75;;;8.43;100.00
3096;BME280;1558;42.700;23.360;2022-10-16T00:49:50;95986.56;;;8.64;100.00
3096;BME280;1558;42.700;23.360;2022-10-16T00:52:19;95984.78;;;8.60;100.00
3096;BME280;1558;42.700;23.360;2022-10-16T00:55:10;95984.47;;;8.61;100.00
3096;BME280;1558;42.700;23.360;2022-10-16T00:58:46;95969.16;;;8.48;100.00
3096;BME280;1558;42.700;23.360;2022-10-16T01:02:32;95933.25;;;8.31;100.00
3096;BME280;1558;42.700;23.360;2022-10-16T01:06:09;95998.00;;;8.56;100.00
3096;BME280;1558;42.700;23.360;2022-10-16T01:08:48;95977.34;;;8.43;100.00
3096;BME280;1558;42.700;23.360;2022-10-16T01:11:25;96002.59;;;8.69;100.00
3096;BME280;1558;42.700;23.360;2022-10-16T01:13:58;95999.59;;;8.71;100.00
3096;BME280;1558;42.700;23.360;2022-10-16T01:16:35;95982.25;;;8.63;100.00
3096;BME280;1558;42.700;23.360;2022-10-16T01:19:16;95998.41;;;8.77;100.00
3096;BME280;1558;42.700;23.360;2022-10-16T01:22:20;95982.47;;;8.67;100.00
3096;BME280;1558;42.700;23.360;2022-10-16T01:25:17;95989.03;;;8.61;100.00
3096;BME280;1558;42.700;23.360;2022-10-16T01:28:13;95975.81;;;8.64;100.00
3096;BME280;1558;42.700;23.360;2022-10-16T01:30:49;95989.63;;;8.71;100.00
3096;BME280;1558;42.700;23.360;2022-10-16T01:33:42;95991.72;;;8.74;100.00
3096;BME280;1558;42.700;23.360;2022-10-16T01:39:58;95983.66;;;8.74;100.00
3096;BME280;1558;42.700;23.360;2022-10-16T01:42:32;95988.75;;;8.62;100.00
3096;BME280;1558;42.700;23.360;2022-10-16T01:45:07;95991.66;;;8.52;100.00
3096;BME280;1558;42.700;23.360;2022-10-16T01:47:56;95991.44;;;8.49;100.00
3096;BME280;1558;42.700;23.360;2022-10-16T01:51:48;96001.41;;;8.48;100.00
3096;BME280;1558;42.700;23.360;2022-10-16T01:58:21;95982.31;;;8.36;100.00
3096;BME280;1558;42.700;23.360;2022-10-16T02:04:31;96001.22;;;8.31;100.00
3096;BME280;1558;42.700;23.360;2022-10-16T02:08:06;96013.25;;;8.20;100.00
3096;BME280;1558;42.700;23.360;2022-10-16T02:11:35;96006.19;;;8.24;100.00
3096;BME280;1558;42.700;23.360;2022-10-16T02:14:37;95975.53;;;7.98;100.00
3096;BME280;1558;42.700;23.360;2022-10-16T02:17:13;96023.69;;;8.08;100.00
3096;BME280;1558;42.700;23.360;2022-10-16T02:19:51;96004.94;;;7.76;100.00
3096;BME280;1558;42.700;23.360;2022-10-16T02:22:26;96009.31;;;7.72;100.00
3096;BME280;1558;42.700;23.360;2022-10-16T02:25:04;96036.47;;;7.84;100.00
3096;BME280;1558;42.700;23.360;2022-10-16T02:27:39;96031.78;;;7.76;100.00
3096;BME280;1558;42.700;23.360;2022-10-16T02:30:13;96026.81;;;7.69;100.00
3096;BME280;1558;42.700;23.360;2022-10-16T02:32:43;95965.41;;;7.17;100.00
3096;BME280;1558;42.700;23.360;2022-10-16T02:35:13;95881.38;;;6.57;100.00
3096;BME280;1558;42.700;23.360;2022-10-16T02:37:45;96027.66;;;7.51;100.00
3096;BME280;1558;42.700;23.360;2022-10-16T02:40:15;96034.97;;;7.45;100.00
3096;BME280;1558;42.700;23.360;2022-10-16T02:42:52;95999.09;;;7.23;100.00
3096;BME280;1558;42.700;23.360;2022-10-16T02:48:41;96035.63;;;7.37;100.00
3096;BME280;1558;42.700;23.360;2022-10-16T02:51:54;96038.19;;;7.29;100.00
3096;BME280;1558;42.700;23.360;2022-10-16T02:58:30;96035.72;;;7.32;100.00
3096;BME280;1558;42.700;23.360;2022-10-16T03:01:34;96027.00;;;7.08;100.00
3096;BME280;1558;42.700;23.360;2022-10-16T03:05:05;95968.66;;;6.63;100.00
3096;BME280;1558;42.700;23.360;2022-10-16T03:07:58;96057.00;;;7.10;100.00
3096;BME280;1558;42.700;23.360;2022-10-16T03:10:31;96026.31;;;6.98;100.00
3096;BME280;1558;42.700;23.360;2022-10-16T03:12:59;96034.34;;;7.16;100.00
3096;BME280;1558;42.700;23.360;2022-10-16T03:15:46;96064.16;;;7.33;100.00
3096;BME280;1558;42.700;23.360;2022-10-16T03:18:54;96049.13;;;7.32;100.00
3096;BME280;1558;42.700;23.360;2022-10-16T03:24:53;96034.28;;;7.21;100.00
3096;BME280;1558;42.700;23.360;2022-10-16T03:36:28;96042.91;;;7.18;100.00
3096;BME280;1558;42.700;23.360;2022-10-16T03:40:04;96059.16;;;7.08;100.00
3096;BME280;1558;42.700;23.360;2022-10-16T03:49:58;96058.38;;;7.08;100.00
3096;BME280;1558;42.700;23.360;2022-10-16T04:02:58;96049.06;;;7.19;100.00
3096;BME280;1558;42.700;23.360;2022-10-16T04:08:58;96056.03;;;7.20;100.00
3096;BME280;1558;42.700;23.360;2022-10-16T04:11:31;96059.06;;;7.13;100.00
3096;BME280;1558;42.700;23.360;2022-10-16T04:14:28;96056.56;;;7.03;100.00
3096;BME280;1558;42.700;23.360;2022-10-16T04:17:16;96061.06;;;7.08;100.00
3096;BME280;1558;42.700;23.360;2022-10-16T04:27:18;96059.50;;;7.02;100.00
3096;BME280;1558;42.700;23.360;2022-10-16T04:29:58;96068.44;;;6.97;100.00
3096;BME280;1558;42.700;23.360;2022-10-16T04:32:57;96061.06;;;6.89;100.00
3096;BME280;1558;42.700;23.360;2022-10-16T04:35:46;96046.22;;;6.73;100.00
3096;BME280;1558;42.700;23.360;2022-10-16T04:43:18;96080.09;;;6.88;100.00
3096;BME280;1558;42.700;23.360;2022-10-16T04:45:54;96077.72;;;6.86;100.00
3096;BME280;1558;42.700;23.360;2022-10-16T04:48:38;96083.06;;;6.86;100.00
3096;BME280;1558;42.700;23.360;2022-10-16T04:51:08;95979.63;;;6.24;100.00
3096;BME280;1558;42.700;23.360;2022-10-16T04:53:41;96082.44;;;7.13;100.00
3096;BME280;1558;42.700;23.360;2022-10-16T04:56:25;96084.78;;;7.51;100.00
3096;BME280;1558;42.700;23.360;2022-10-16T04:59:19;96097.06;;;7.90;100.00
3096;BME280;1558;42.700;23.360;2022-10-16T05:01:49;96100.50;;;8.23;100.00
3096;BME280;1558;42.700;23.360;2022-10-16T05:05:18;96092.22;;;8.51;100.00
3096;BME280;1558;42.700;23.360;2022-10-16T05:08:30;96101.75;;;9.12;100.00
3096;BME280;1558;42.700;23.360;2022-10-16T05:11:15;96109.41;;;9.54;100.00
3096;BME280;1558;42.700;23.360;2022-10-16T05:14:36;96047.16;;;9.33;100.00
3096;BME280;1558;42.700;23.360;2022-10-16T05:20:26;96109.28;;;10.26;100.00
3096;BME280;1558;42.700;23.360;2022-10-16T05:23:13;96091.25;;;10.35;100.00
3096;BME280;1558;42.700;23.360;2022-10-16T05:25:53;96114.16;;;10.85;100.00
3096;BME280;1558;42.700;23.360;2022-10-16T05:28:38;96098.94;;;10.89;100.00
3096;BME280;1558;42.700;23.360;2022-10-16T05:34:46;96117.81;;;10.80;100.00
3096;BME280;1558;42.700;23.360;2022-10-16T05:37:40;96126.50;;;11.25;100.00
3096;BME280;1558;42.700;23.360;2022-10-16T05:41:10;96107.47;;;11.47;100.00
3096;BME280;1558;42.700;23.360;2022-10-16T05:44:09;96118.59;;;11.54;100.00
3096;BME280;1558;42.700;23.360;2022-10-16T05:47:14;96111.28;;;11.64;100.00
3096;BME280;1558;42.700;23.360;2022-10-16T05:49:54;96130.34;;;11.67;100.00
3096;BME280;1558;42.700;23.360;2022-10-16T05:52:22;96086.00;;;11.51;100.00
3096;BME280;1558;42.700;23.360;2022-10-16T05:54:50;96120.69;;;12.00;100.00
3096;BME280;1558;42.700;23.360;2022-10-16T05:57:18;96127.03;;;12.21;99.63
3096;BME280;1558;42.700;23.360;2022-10-16T05:59:46;96140.50;;;12.39;98.13
3096;BME280;1558;42.700;23.360;2022-10-16T06:02:14;96139.50;;;12.60;95.87
3096;BME280;1558;42.700;23.360;2022-10-16T06:04:42;96140.78;;;12.54;94.64
3096;BME280;1558;42.700;23.360;2022-10-16T06:07:12;96148.88;;;12.63;93.63
3096;BME280;1558;42.700;23.360;2022-10-16T06:09:40;96151.06;;;12.78;92.94
3096;BME280;1558;42.700;23.360;2022-10-16T06:12:07;96134.19;;;12.81;91.01
3096;BME280;1558;42.700;23.360;2022-10-16T06:14:35;96149.00;;;13.21;89.23
3096;BME280;1558;42.700;23.360;2022-10-16T06:17:05;96153.09;;;13.27;87.68
3096;BME280;1558;42.700;23.360;2022-10-16T06:19:33;96157.09;;;13.50;87.02
3096;BME280;1558;42.700;23.360;2022-10-16T06:22:00;96160.34;;;13.44;84.95
3096;BME280;1558;42.700;23.360;2022-10-16T06:24:32;96161.94;;;13.45;84.76
3096;BME280;1558;42.700;23.360;2022-10-16T06:27:00;96170.66;;;13.50;84.09
3096;BME280;1558;42.700;23.360;2022-10-16T06:29:27;96171.44;;;13.22;84.88
3096;BME280;1558;42.700;23.360;2022-10-16T06:31:55;96174.34;;;12.70;86.02
3096;BME280;1558;42.700;23.360;2022-10-16T06:34:23;96174.22;;;12.58;88.77
3096;BME280;1558;42.700;23.360;2022-10-16T06:36:51;96172.44;;;12.71;89.40
3096;BME280;1558;42.700;23.360;2022-10-16T06:39:19;96173.81;;;12.85;89.63
3096;BME280;1558;42.700;23.360;2022-10-16T06:41:48;96175.22;;;13.00;89.41
3096;BME280;1558;42.700;23.360;2022-10-16T06:44:16;96185.00;;;13.51;86.53
3096;BME280;1558;42.700;23.360;2022-10-16T06:46:44;96177.50;;;13.98;84.73
3096;BME280;1558;42.700;23.360;2022-10-16T06:49:12;96180.81;;;14.03;81.73
3096;BME280;1558;42.700;23.360;2022-10-16T06:51:42;96189.81;;;13.95;82.02
3096;BME280;1558;42.700;23.360;2022-10-16T06:54:10;96193.53;;;14.32;81.27
3096;BME280;1558;42.700;23.360;2022-10-16T06:56:38;96193.75;;;14.60;79.93
3096;BME280;1558;42.700;23.360;2022-10-16T06:59:07;96206.53;;;14.92;78.92
3096;BME280;1558;42.700;23.360;2022-10-16T07:01:35;96208.56;;;15.07;76.96
3096;BME280;1558;42.700;23.360;2022-10-16T07:04:03;96198.69;;;14.90;76.12
3096;BME280;1558;42.700;23.360;2022-10-16T07:06:32;96202.25;;;14.17;77.93
3096;BME280;1558;42.700;23.360;2022-10-16T07:09:05;96201.69;;;14.32;79.82
3096;BME280;1558;42.700;23.360;2022-10-16T07:11:34;96167.44;;;14.72;78.75
3096;BME280;1558;42.700;23.360;2022-10-16T07:14:02;96202.09;;;15.44;76.41
3096;BME280;1558;42.700;23.360;2022-10-16T07:16:32;96217.25;;;15.57;73.78
3096;BME280;1558;42.700;23.360;2022-10-16T07:19:02;96200.41;;;15.52;73.95
3096;BME280;1558;42.700;23.360;2022-10-16T07:21:32;96174.78;;;15.65;73.41
3096;BME280;1558;42.700;23.360;2022-10-16T07:24:04;96167.41;;;15.78;70.96
3096;BME280;1558;42.700;23.360;2022-10-16T07:26:35;96204.47;;;15.58;72.12
3096;BME280;1558;42.700;23.360;2022-10-16T07:29:03;96204.09;;;15.72;73.13
3096;BME280;1558;42.700;23.360;2022-10-16T07:31:32;96214.25;;;16.11;71.07
3096;BME280;1558;42.700;23.360;2022-10-16T07:34:00;96202.63;;;15.86;71.53
3096;BME280;1558;42.700;23.360;2022-10-16T07:36:28;96208.03;;;16.10;71.18
3096;BME280;1558;42.700;23.360;2022-10-16T07:38:56;96172.84;;;15.53;71.37
3096;BME280;1558;42.700;23.360;2022-10-16T07:41:26;96118.69;;;15.00;72.02
3096;BME280;1558;42.700;23.360;2022-10-16T07:43:55;96213.06;;;15.72;73.38
3096;BME280;1558;42.700;23.360;2022-10-16T07:46:26;96207.47;;;16.45;72.36
3096;BME280;1558;42.700;23.360;2022-10-16T07:48:56;96181.00;;;16.57;69.76
3096;BME280;1558;42.700;23.360;2022-10-16T07:51:25;96177.59;;;16.76;68.86
3096;BME280;1558;42.700;23.360;2022-10-16T07:53:53;96198.75;;;17.10;68.39
3096;BME280;1558;42.700;23.360;2022-10-16T07:56:21;96210.56;;;17.30;66.92
3096;BME280;1558;42.700;23.360;2022-10-16T07:58:50;96216.53;;;17.51;67.14
3096;BME280;1558;42.700;23.360;2022-10-16T08:01:18;96219.41;;;16.96;66.27
3096;BME280;1558;42.700;23.360;2022-10-16T08:03:48;96215.88;;;16.95;67.05
3096;BME280;1558;42.700;23.360;2022-10-16T08:06:19;96220.38;;;16.60;67.09
3096;BME280;1558;42.700;23.360;2022-10-16T08:08:54;96212.34;;;16.51;68.40
3096;BME280;1558;42.700;23.360;2022-10-16T08:11:22;96215.03;;;16.63;68.86
3096;BME280;1558;42.700;23.360;2022-10-16T08:13:50;96216.53;;;17.51;67.40
3096;BME280;1558;42.700;23.360;2022-10-16T08:16:18;96158.31;;;17.12;65.84
3096;BME280;1558;42.700;23.360;2022-10-16T08:18:46;96216.56;;;17.67;65.18
3096;BME280;1558;42.700;23.360;2022-10-16T08:21:16;96213.16;;;17.54;65.37
3096;BME280;1558;42.700;23.360;2022-10-16T08:23:49;96213.28;;;17.30;65.84
3096;BME280;1558;42.700;23.360;2022-10-16T08:26:24;96184.94;;;17.50;66.24
3096;BME280;1558;42.700;23.360;2022-10-16T08:28:52;96187.38;;;17.86;64.16
3096;BME280;1558;42.700;23.360;2022-10-16T08:31:20;96190.38;;;18.35;63.12
3096;BME280;1558;42.700;23.360;2022-10-16T08:33:48;96198.44;;;18.85;61.58
3096;BME280;1558;42.700;23.360;2022-10-16T08:36:17;96208.69;;;18.69;60.08
3096;BME280;1558;42.700;23.360;2022-10-16T08:38:49;96205.53;;;18.67;60.52
3096;BME280;1558;42.700;23.360;2022-10-16T08:41:47;96183.09;;;18.04;59.93
3096;BME280;1558;42.700;23.360;2022-10-16T08:44:30;96202.84;;;18.33;60.60
3096;BME280;1558;42.700;23.360;2022-10-16T08:47:08;96200.13;;;18.71;58.98
3096;BME280;1558;42.700;23.360;2022-10-16T08:49:42;96187.56;;;19.08;57.18
3096;BME280;1558;42.700;23.360;2022-10-16T08:52:11;96202.94;;;19.16;56.97
3096;BME280;1558;42.700;23.360;2022-10-16T08:54:44;96213.03;;;19.12;56.22
3096;BME280;1558;42.700;23.360;2022-10-16T08:57:17;96213.25;;;19.68;55.52
3096;BME280;1558;42.700;23.360;2022-10-16T08:59:50;96211.78;;;19.51;53.99
3096;BME280;1558;42.700;23.360;2022-10-16T09:02:24;96190.59;;;19.26;52.69
3096;BME280;1558;42.700;23.360;2022-10-16T09:05:18;96215.97;;;19.23;52.71
3096;BME280;1558;42.700;23.360;2022-10-16T09:07:55;96187.44;;;19.95;52.02
3096;BME280;1558;42.700;23.360;2022-10-16T09:10:39;96210.84;;;20.19;51.38
3096;BME280;1558;42.700;23.360;2022-10-16T09:13:18;96204.31;;;20.53;50.02
3096;BME280;1558;42.700;23.360;2022-10-16T09:15:53;96202.06;;;20.33;48.91
3096;BME280;1558;42.700;23.360;2022-10-16T09:18:26;96201.72;;;19.82;49.58
3096;BME280;1558;42.700;23.360;2022-10-16T09:21:04;96205.81;;;19.95;49.03
3096;BME280;1558;42.700;23.360;2022-10-16T09:23:37;96194.56;;;20.92;48.09
3096;BME280;1558;42.700;23.360;2022-10-16T09:26:11;96184.47;;;20.34;46.36
3096;BME280;1558;42.700;23.360;2022-10-16T09:28:40;96211.06;;;19.81;48.01
3096;BME280;1558;42.700;23.360;2022-10-16T09:31:15;96189.72;;;20.19;48.35
3096;BME280;1558;42.700;23.360;2022-10-16T09:33:47;96186.25;;;20.49;46.41
3096;BME280;1558;42.700;23.360;2022-10-16T09:36:16;96206.50;;;19.39;49.18
3096;BME280;1558;42.700;23.360;2022-10-16T09:38:45;96193.41;;;20.04;49.35
3096;BME280;1558;42.700;23.360;2022-10-16T09:41:19;96204.06;;;20.09;49.10
3096;BME280;1558;42.700;23.360;2022-10-16T09:43:51;96196.56;;;20.62;48.41
3096;BME280;1558;42.700;23.360;2022-10-16T09:46:28;96193.59;;;21.08;47.44
3096;BME280;1558;42.700;23.360;2022-10-16T09:48:58;96182.63;;;21.08;46.97
3096;BME280;1558;42.700;23.360;2022-10-16T09:51:28;96187.03;;;21.19;47.18
3096;BME280;1558;42.700;23.360;2022-10-16T09:53:58;96099.91;;;20.36;46.93
3096;BME280;1558;42.700;23.360;2022-10-16T09:56:30;96180.69;;;21.12;46.24
3096;BME280;1558;42.700;23.360;2022-10-16T09:59:00;96182.91;;;21.03;46.74
3096;BME280;1558;42.700;23.360;2022-10-16T10:01:31;96188.75;;;20.64;47.80
3096;BME280;1558;42.700;23.360;2022-10-16T10:03:59;96176.94;;;20.93;47.61
3096;BME280;1558;42.700;23.360;2022-10-16T10:06:32;96171.06;;;20.91;47.69
3096;BME280;1558;42.700;23.360;2022-10-16T10:09:06;96176.47;;;20.84;46.86
3096;BME280;1558;42.700;23.360;2022-10-16T10:11:45;96155.75;;;21.27;47.45
3096;BME280;1558;42.700;23.360;2022-10-16T10:14:23;96168.56;;;21.60;46.80
3096;BME280;1558;42.700;23.360;2022-10-16T10:17:00;96156.34;;;21.54;46.47
3096;BME280;1558;42.700;23.360;2022-10-16T10:19:29;96170.28;;;20.94;47.28
3096;BME280;1558;42.700;23.360;2022-10-16T10:21:58;96166.22;;;21.15;47.86
3096;BME280;1558;42.700;23.360;2022-10-16T10:24:26;96162.06;;;21.35;47.28
3096;BME280;1558;42.700;23.360;2022-10-16T10:27:02;96040.63;;;20.57;46.33
3096;BME280;1558;42.700;23.360;2022-10-16T10:29:44;96146.59;;;21.60;46.74
3096;BME280;1558;42.700;23.360;2022-10-16T10:32:24;96157.69;;;21.74;46.34
3096;BME280;1558;42.700;23.360;2022-10-16T10:35:07;96147.44;;;21.68;45.19
3096;BME280;1558;42.700;23.360;2022-10-16T10:37:51;96156.53;;;21.28;45.74
3096;BME280;1558;42.700;23.360;2022-10-16T10:40:31;96150.34;;;20.98;45.86
3096;BME280;1558;42.700;23.360;2022-10-16T10:43:11;96139.38;;;21.38;44.77
3096;BME280;1558;42.700;23.360;2022-10-16T10:45:47;96145.06;;;21.19;45.74
3096;BME280;1558;42.700;23.360;2022-10-16T10:48:23;96139.41;;;21.01;45.64
3096;BME280;1558;42.700;23.360;2022-10-16T10:51:01;96145.59;;;21.35;45.36
3096;BME280;1558;42.700;23.360;2022-10-16T10:53:40;96136.25;;;21.43;45.38
3096;BME280;1558;42.700;23.360;2022-10-16T10:56:19;96139.81;;;21.03;46.20
3096;BME280;1558;42.700;23.360;2022-10-16T10:59:19;96137.84;;;21.44;45.01
3096;BME280;1558;42.700;23.360;2022-10-16T11:01:56;96138.44;;;21.20;45.72
3096;BME280;1558;42.700;23.360;2022-10-16T11:04:34;96085.31;;;21.02;45.73
3096;BME280;1558;42.700;23.360;2022-10-16T11:07:13;96119.41;;;21.41;45.22
3096;BME280;1558;42.700;23.360;2022-10-16T11:09:46;96102.50;;;21.93;44.58
3096;BME280;1558;42.700;23.360;2022-10-16T11:12:18;96127.19;;;21.90;42.97
3096;BME280;1558;42.700;23.360;2022-10-16T11:14:50;96123.84;;;22.21;43.41
3096;BME280;1558;42.700;23.360;2022-10-16T11:17:24;96116.88;;;21.76;43.92
3096;BME280;1558;42.700;23.360;2022-10-16T11:19:57;96113.66;;;21.60;43.94
3096;BME280;1558;42.700;23.360;2022-10-16T11:22:30;96064.41;;;21.88;43.67
3096;BME280;1558;42.700;23.360;2022-10-16T11:25:04;96101.94;;;22.49;43.57
3096;BME280;1558;42.700;23.360;2022-10-16T11:27:41;96100.00;;;22.53;43.39
3096;BME280;1558;42.700;23.360;2022-10-16T11:30:16;96103.47;;;22.36;42.17
3096;BME280;1558;42.700;23.360;2022-10-16T11:33:05;96105.50;;;22.46;42.35
3096;BME280;1558;42.700;23.360;2022-10-16T11:35:43;96073.72;;;21.77;42.78
3096;BME280;1558;42.700;23.360;2022-10-16T11:38:15;96083.78;;;21.55;43.62
3096;BME280;1558;42.700;23.360;2022-10-16T11:40:47;96072.81;;;21.55;43.41
3096;BME280;1558;42.700;23.360;2022-10-16T11:43:22;96092.66;;;21.92;43.04
3096;BME280;1558;42.700;23.360;2022-10-16T11:45:55;96095.78;;;21.87;42.45
3096;BME280;1558;42.700;23.360;2022-10-16T11:48:31;96114.19;;;21.83;41.95
3096;BME280;1558;42.700;23.360;2022-10-16T11:51:05;96108.41;;;21.95;41.72
3096;BME280;1558;42.700;23.360;2022-10-16T11:53:44;96088.09;;;22.17;40.99
3096;BME280;1558;42.700;23.360;2022-10-16T11:56:13;96110.88;;;22.25;42.01
3096;BME280;1558;42.700;23.360;2022-10-16T11:58:51;96114.22;;;22.73;41.66
3096;BME280;1558;42.700;23.360;2022-10-16T12:01:28;96104.41;;;22.72;41.30
3096;BME280;1558;42.700;23.360;2022-10-16T12:04:14;96064.72;;;21.80;42.03
3096;BME280;1558;42.700;23.360;2022-10-16T12:06:48;96108.03;;;21.42;43.17
3096;BME280;1558;42.700;23.360;2022-10-16T12:09:22;96094.72;;;21.48;43.45
3096;BME280;1558;42.700;23.360;2022-10-16T12:11:50;96110.81;;;22.07;42.79
3096;BME280;1558;42.700;23.360;2022-10-16T12:17:26;96100.63;;;22.08;42.06
3096;BME280;1558;42.700;23.360;2022-10-16T12:19:58;96100.00;;;22.57;41.89
3096;BME280;1558;42.700;23.360;2022-10-16T12:22:28;96100.47;;;22.73;41.30
3096;BME280;1558;42.700;23.360;2022-10-16T12:24:57;96100.03;;;22.60;40.42
3096;BME280;1558;42.700;23.360;2022-10-16T12:27:28;96082.34;;;21.75;41.17
3096;BME280;1558;42.700;23.360;2022-10-16T12:29:58;96088.72;;;21.86;41.63
3096;BME280;1558;42.700;23.360;2022-10-16T12:32:31;96050.84;;;21.55;42.16
3096;BME280;1558;42.700;23.360;2022-10-16T12:35:19;96085.44;;;21.63;42.45
3096;BME280;1558;42.700;23.360;2022-10-16T12:37:48;96102.19;;;22.05;41.89
3096;BME280;1558;42.700;23.360;2022-10-16T12:40:26;96099.13;;;22.28;42.01
3096;BME280;1558;42.700;23.360;2022-10-16T12:42:55;96002.38;;;21.15;41.48
3096;BME280;1558;42.700;23.360;2022-10-16T12:45:26;96081.31;;;21.97;41.61
3096;BME280;1558;42.700;23.360;2022-10-16T12:47:57;96105.13;;;22.55;41.88
3096;BME280;1558;42.700;23.360;2022-10-16T12:50:30;96107.59;;;22.95;41.11
3096;BME280;1558;42.700;23.360;2022-10-16T12:52:59;96107.19;;;22.79;40.12
3096;BME280;1558;42.700;23.360;2022-10-16T12:55:34;96058.66;;;22.25;39.99
3096;BME280;1558;42.700;23.360;2022-10-16T12:58:18;96110.75;;;21.97;40.45
3096;BME280;1558;42.700;23.360;2022-10-16T13:00:54;96075.66;;;21.69;40.48
3096;BME280;1558;42.700;23.360;2022-10-16T13:06:23;96068.03;;;21.45;40.40
3096;BME280;1558;42.700;23.360;2022-10-16T13:12:09;96116.72;;;22.09;40.24
3096;BME280;1558;42.700;23.360;2022-10-16T13:15:16;96119.34;;;21.88;41.27
3096;BME280;1558;42.700;23.360;2022-10-16T13:17:53;96113.34;;;21.72;41.16
3096;BME280;1558;42.700;23.360;2022-10-16T13:20:31;96080.50;;;21.32;41.49
3096;BME280;1558;42.700;23.360;2022-10-16T13:23:09;96093.53;;;21.02;41.27
3096;BME280;1558;42.700;23.360;2022-10-16T13:25:51;96114.59;;;20.90;41.67
3096;BME280;1558;42.700;23.360;2022-10-16T13:28:28;96094.97;;;20.48;42.02
3096;BME280;1558;42.700;23.360;2022-10-16T13:30:59;96113.44;;;20.51;41.99
3096;BME280;1558;42.700;23.360;2022-10-16T13:33:32;96083.44;;;20.32;42.04
3096;BME280;1558;42.700;23.360;2022-10-16T13:36:03;96107.88;;;20.44;42.19
3096;BME280;1558;42.700;23.360;2022-10-16T13:38:34;96100.56;;;20.22;40.32
3096;BME280;1558;42.700;23.360;2022-10-16T13:41:04;96116.00;;;20.07;40.72
3096;BME280;1558;42.700;23.360;2022-10-16T13:43:34;96086.16;;;19.99;40.92
3096;BME280;1558;42.700;23.360;2022-10-16T13:46:04;96117.06;;;20.29;40.90
3096;BME280;1558;42.700;23.360;2022-10-16T13:48:34;96121.06;;;20.35;41.18
3096;BME280;1558;42.700;23.360;2022-10-16T13:51:06;96109.59;;;20.26;41.17
3096;BME280;1558;42.700;23.360;2022-10-16T13:53:39;96113.81;;;20.20;41.33
3096;BME280;1558;42.700;23.360;2022-10-16T13:56:12;96096.09;;;20.14;41.64
3096;BME280;1558;42.700;23.360;2022-10-16T13:58:41;96125.56;;;20.20;41.36
3096;BME280;1558;42.700;23.360;2022-10-16T14:01:16;96125.41;;;20.10;41.70
3096;BME280;1558;42.700;23.360;2022-10-16T14:03:45;96129.03;;;19.88;41.56
3096;BME280;1558;42.700;23.360;2022-10-16T14:06:17;96140.75;;;19.85;42.17
3096;BME280;1558;42.700;23.360;2022-10-16T14:08:51;96135.47;;;19.73;41.73
3096;BME280;1558;42.700;23.360;2022-10-16T14:11:22;96128.72;;;19.67;41.35
3096;BME280;1558;42.700;23.360;2022-10-16T14:13:51;96139.47;;;19.52;41.61
3096;BME280;1558;42.700;23.360;2022-10-16T14:16:21;96135.56;;;19.53;41.48
3096;BME280;1558;42.700;23.360;2022-10-16T14:18:55;96051.78;;;18.74;41.48
3096;BME280;1558;42.700;23.360;2022-10-16T14:21:25;96141.97;;;19.16;41.74
3096;BME280;1558;42.700;23.360;2022-10-16T14:23:54;96124.56;;;19.05;42.17
3096;BME280;1558;42.700;23.360;2022-10-16T14:26:23;96098.69;;;18.76;42.26
3096;BME280;1558;42.700;23.360;2022-10-16T14:29:08;96146.34;;;18.98;42.67
3096;BME280;1558;42.700;23.360;2022-10-16T14:31:38;96132.28;;;18.76;42.98
3096;BME280;1558;42.700;23.360;2022-10-16T14:34:22;96152.47;;;18.68;42.98
3096;BME280;1558;42.700;23.360;2022-10-16T14:36:52;96161.94;;;18.55;43.41
3096;BME280;1558;42.700;23.360;2022-10-16T14:39:22;96091.84;;;18.05;43.72
3096;BME280;1558;42.700;23.360;2022-10-16T14:41:52;96152.78;;;18.28;43.85
3096;BME280;1558;42.700;23.360;2022-10-16T14:44:24;96157.31;;;18.21;43.75
3096;BME280;1558;42.700;23.360;2022-10-16T14:46:54;96161.22;;;18.20;44.03
3096;BME280;1558;42.700;23.360;2022-10-16T14:49:23;96032.06;;;17.27;44.46
3096;BME280;1558;42.700;23.360;2022-10-16T14:51:53;96163.53;;;17.83;44.97
3096;BME280;1558;42.700;23.360;2022-10-16T14:54:21;96106.56;;;17.47;45.26
3096;BME280;1558;42.700;23.360;2022-10-16T14:56:50;96177.28;;;17.71;45.75
3096;BME280;1558;42.700;23.360;2022-10-16T14:59:26;96169.31;;;17.47;46.30
3096;BME280;1558;42.700;23.360;2022-10-16T15:01:55;96163.38;;;17.45;46.43
3096;BME280;1558;42.700;23.360;2022-10-16T15:04:23;96169.13;;;17.40;46.75
3096;BME280;1558;42.700;23.360;2022-10-16T15:06:54;96169.22;;;17.28;47.12
3096;BME280;1558;42.700;23.360;2022-10-16T15:09:22;96175.38;;;17.25;47.58
3096;BME280;1558;42.700;23.360;2022-10-16T15:11:50;96176.50;;;17.24;48.07
3096;BME280;1558;42.700;23.360;2022-10-16T15:14:18;96165.34;;;17.13;48.21
3096;BME280;1558;42.700;23.360;2022-10-16T15:16:46;96163.25;;;17.07;48.18
3096;BME280;1558;42.700;23.360;2022-10-16T15:19:14;96170.69;;;16.94;48.60
3096;BME280;1558;42.700;23.360;2022-10-16T15:21:42;96159.69;;;16.75;48.79